sensor_id;sensor_type;location;lat;lon;timestamp;P1;durP1;ratioP1;P2;durP2;ratioP2
1390;SDS011;690;51.454;7.194;2022-10-16T00:01:05;6.73;;;3.33;;
1390;SDS011;690;51.454;7.194;2022-10-16T00:03:32;5.83;;;3.00;;
1390;SDS011;690;51.454;7.194;2022-10-16T00:06:00;3.50;;;2.80;;
1390;SDS011;690;51.454;7.194;2022-10-16T00:08:27;7.40;;;2.90;;
1390;SDS011;690;51.454;7.194;2022-10-16T00:10:58;4.53;;;2.70;;
1390;SDS011;690;51.454;7.194;2022-10-16T00:13:25;4.13;;;3.03;;
1390;SDS011;690;51.454;7.194;2022-10-16T00:15:55;3.83;;;2.37;;
1390;SDS011;690;51.454;7.194;2022-10-16T00:18:23;4.50;;;2.70;;
1390;SDS011;690;51.454;7.194;2022-10-16T00:20:50;4.90;;;2.77;;
1390;SDS011;690;51.454;7.194;2022-10-16T00:23:17;4.00;;;2.20;;
1390;SDS011;690;51.454;7.194;2022-10-16T00:25:43;4.03;;;2.50;;
1390;SDS011;690;51.454;7.194;2022-10-16T00:28:10;2.40;;;2.20;;
1390;SDS011;690;51.454;7.194;2022-10-16T00:30:37;3.47;;;1.93;;
1390;SDS011;690;51.454;7.194;2022-10-16T00:33:06;4.80;;;2.17;;
1390;SDS011;690;51.454;7.194;2022-10-16T00:35:33;2.93;;;2.20;;
1390;SDS011;690;51.454;7.194;2022-10-16T00:38:00;3.73;;;2.33;;
1390;SDS011;690;51.454;7.194;2022-10-16T00:40:26;2.90;;;2.37;;
1390;SDS011;690;51.454;7.194;2022-10-16T00:42:54;4.80;;;2.37;;
1390;SDS011;690;51.454;7.194;2022-10-16T00:45:21;3.23;;;2.23;;
1390;SDS011;690;51.454;7.194;2022-10-16T00:47:48;3.50;;;2.73;;
1390;SDS011;690;51.454;7.194;2022-10-16T00:50:18;7.07;;;2.70;;
1390;SDS011;690;51.454;7.194;2022-10-16T00:52:50;4.30;;;2.00;;
1390;SDS011;690;51.454;7.194;2022-10-16T00:55:18;2.50;;;2.00;;
1390;SDS011;690;51.454;7.194;2022-10-16T00:57:46;5.33;;;2.27;;
1390;SDS011;690;51.454;7.194;2022-10-16T01:00:15;4.73;;;2.20;;
1390;SDS011;690;51.454;7.194;2022-10-16T01:02:44;6.57;;;2.40;;
1390;SDS011;690;51.454;7.194;2022-10-16T01:05:11;4.10;;;2.00;;
1390;SDS011;690;51.454;7.194;2022-10-16T01:07:41;1.90;;;1.73;;
1390;SDS011;690;51.454;7.194;2022-10-16T01:10:21;2.60;;;1.90;;
1390;SDS011;690;51.454;7.194;2022-10-16T01:12:58;4.53;;;2.13;;
1390;SDS011;690;51.454;7.194;2022-10-16T01:15:29;2.63;;;2.17;;
1390;SDS011;690;51.454;7.194;2022-10-16T01:18:00;2.63;;;1.90;;
1390;SDS011;690;51.454;7.194;2022-10-16T01:20:32;2.03;;;1.70;;
1390;SDS011;690;51.454;7.194;2022-10-16T01:23:10;3.60;;;2.53;;
1390;SDS011;690;51.454;7.194;2022-10-16T01:25:55;3.83;;;2.33;;
1390;SDS011;690;51.454;7.194;2022-10-16T01:28:36;3.03;;;2.03;;
1390;SDS011;690;51.454;7.194;2022-10-16T01:31:07;2.77;;;1.80;;
1390;SDS011;690;51.454;7.194;2022-10-16T01:33:42;2.50;;;1.90;;
1390;SDS011;690;51.454;7.194;2022-10-16T01:36:12;2.13;;;1.93;;
1390;SDS011;690;51.454;7.194;2022-10-16T01:38:42;4.10;;;2.23;;
1390;SDS011;690;51.454;7.194;2022-10-16T01:41:11;6.07;;;2.03;;
1390;SDS011;690;51.454;7.194;2022-10-16T01:43:43;1.70;;;1.60;;
1390;SDS011;690;51.454;7.194;2022-10-16T01:46:14;2.60;;;1.60;;
1390;SDS011;690;51.454;7.194;2022-10-16T01:48:45;4.53;;;1.90;;
1390;SDS011;690;51.454;7.194;2022-10-16T01:51:13;3.30;;;1.70;;
1390;SDS011;690;51.454;7.194;2022-10-16T01:53:43;2.80;;;2.53;;
1390;SDS011;690;51.454;7.194;2022-10-16T01:56:15;2.87;;;1.60;;
1390;SDS011;690;51.454;7.194;2022-10-16T01:58:47;3.77;;;2.10;;
1390;SDS011;690;51.454;7.194;2022-10-16T02:01:19;2.00;;;1.80;;
1390;SDS011;690;51.454;7.194;2022-10-16T02:03:49;2.33;;;2.10;;
1390;SDS011;690;51.454;7.194;2022-10-16T02:06:19;3.10;;;1.60;;
1390;SDS011;690;51.454;7.194;2022-10-16T02:08:47;3.33;;;2.10;;
1390;SDS011;690;51.454;7.194;2022-10-16T02:11:14;3.97;;;1.80;;
1390;SDS011;690;51.454;7.194;2022-10-16T02:13:41;3.40;;;1.90;;
1390;SDS011;690;51.454;7.194;2022-10-16T02:16:13;6.87;;;1.60;;
1390;SDS011;690;51.454;7.194;2022-10-16T02:18:40;2.60;;;1.90;;
1390;SDS011;690;51.454;7.194;2022-10-16T02:21:10;3.07;;;1.60;;
1390;SDS011;690;51.454;7.194;2022-10-16T02:23:43;2.37;;;1.50;;
1390;SDS011;690;51.454;7.194;2022-10-16T02:26:16;1.90;;;1.40;;
1390;SDS011;690;51.454;7.194;2022-10-16T02:28:54;3.77;;;2.07;;
1390;SDS011;690;51.454;7.194;2022-10-16T02:31:28;5.23;;;1.80;;
1390;SDS011;690;51.454;7.194;2022-10-16T02:33:59;3.00;;;1.50;;
1390;SDS011;690;51.454;7.194;2022-10-16T02:36:27;3.23;;;1.63;;
1390;SDS011;690;51.454;7.194;2022-10-16T02:38:55;3.17;;;1.50;;
1390;SDS011;690;51.454;7.194;2022-10-16T02:41:22;4.40;;;1.87;;
1390;SDS011;690;51.454;7.194;2022-10-16T02:43:50;3.13;;;1.90;;
1390;SDS011;690;51.454;7.194;2022-10-16T02:46:17;2.23;;;1.97;;
1390;SDS011;690;51.454;7.194;2022-10-16T02:48:45;2.60;;;1.77;;
1390;SDS011;690;51.454;7.194;2022-10-16T02:51:12;2.20;;;1.80;;
1390;SDS011;690;51.454;7.194;2022-10-16T02:53:39;4.10;;;1.90;;
1390;SDS011;690;51.454;7.194;2022-10-16T02:56:06;4.43;;;1.87;;
1390;SDS011;690;51.454;7.194;2022-10-16T02:58:33;2.03;;;1.63;;
1390;SDS011;690;51.454;7.194;2022-10-16T03:01:00;2.80;;;1.90;;
1390;SDS011;690;51.454;7.194;2022-10-16T03:03:27;1.40;;;1.30;;
1390;SDS011;690;51.454;7.194;2022-10-16T03:05:56;2.00;;;1.90;;
1390;SDS011;690;51.454;7.194;2022-10-16T03:08:23;2.27;;;1.70;;
1390;SDS011;690;51.454;7.194;2022-10-16T03:10:50;4.70;;;1.83;;
1390;SDS011;690;51.454;7.194;2022-10-16T03:13:17;4.43;;;1.57;;
1390;SDS011;690;51.454;7.194;2022-10-16T03:15:46;3.83;;;1.50;;
1390;SDS011;690;51.454;7.194;2022-10-16T03:18:13;3.27;;;1.70;;
1390;SDS011;690;51.454;7.194;2022-10-16T03:20:40;11.20;;;2.30;;
1390;SDS011;690;51.454;7.194;2022-10-16T03:23:09;3.00;;;1.43;;
1390;SDS011;690;51.454;7.194;2022-10-16T03:25:36;5.27;;;1.60;;
1390;SDS011;690;51.454;7.194;2022-10-16T03:28:03;2.53;;;1.53;;
1390;SDS011;690;51.454;7.194;2022-10-16T03:30:30;2.33;;;1.50;;
1390;SDS011;690;51.454;7.194;2022-10-16T03:32:57;1.53;;;1.43;;
1390;SDS011;690;51.454;7.194;2022-10-16T03:35:24;1.90;;;1.40;;
1390;SDS011;690;51.454;7.194;2022-10-16T03:37:51;1.80;;;1.10;;
1390;SDS011;690;51.454;7.194;2022-10-16T03:40:19;2.57;;;1.60;;
1390;SDS011;690;51.454;7.194;2022-10-16T03:42:46;1.90;;;1.07;;
1390;SDS011;690;51.454;7.194;2022-10-16T03:45:13;4.13;;;1.40;;
1390;SDS011;690;51.454;7.194;2022-10-16T03:47:40;3.03;;;1.47;;
1390;SDS011;690;51.454;7.194;2022-10-16T03:50:07;1.57;;;1.17;;
1390;SDS011;690;51.454;7.194;2022-10-16T03:52:34;1.50;;;1.40;;
1390;SDS011;690;51.454;7.194;2022-10-16T03:55:01;2.97;;;1.50;;
1390;SDS011;690;51.454;7.194;2022-10-16T03:57:30;2.20;;;1.30;;
1390;SDS011;690;51.454;7.194;2022-10-16T03:59:56;1.50;;;1.30;;
1390;SDS011;690;51.454;7.194;2022-10-16T04:02:23;2.47;;;1.50;;
1390;SDS011;690;51.454;7.194;2022-10-16T04:04:50;1.93;;;1.40;;
1390;SDS011;690;51.454;7.194;2022-10-16T04:07:17;1.17;;;1.07;;
1390;SDS011;690;51.454;7.194;2022-10-16T04:09:44;1.37;;;1.27;;
1390;SDS011;690;51.454;7.194;2022-10-16T04:12:11;3.43;;;1.43;;
1390;SDS011;690;51.454;7.194;2022-10-16T04:14:39;2.13;;;1.20;;
1390;SDS011;690;51.454;7.194;2022-10-16T04:17:06;1.33;;;1.17;;
1390;SDS011;690;51.454;7.194;2022-10-16T04:19:33;1.73;;;1.57;;
1390;SDS011;690;51.454;7.194;2022-10-16T04:22:00;3.20;;;1.30;;
1390;SDS011;690;51.454;7.194;2022-10-16T04:24:26;1.30;;;1.20;;
1390;SDS011;690;51.454;7.194;2022-10-16T04:26:53;1.60;;;1.20;;
1390;SDS011;690;51.454;7.194;2022-10-16T04:29:20;1.60;;;1.23;;
1390;SDS011;690;51.454;7.194;2022-10-16T04:31:49;3.30;;;1.47;;
1390;SDS011;690;51.454;7.194;2022-10-16T04:34:16;2.30;;;1.27;;
1390;SDS011;690;51.454;7.194;2022-10-16T04:36:43;1.30;;;1.20;;
1390;SDS011;690;51.454;7.194;2022-10-16T04:39:10;4.20;;;1.50;;
1390;SDS011;690;51.454;7.194;2022-10-16T04:41:37;1.73;;;1.00;;
1390;SDS011;690;51.454;7.194;2022-10-16T04:44:03;3.30;;;1.33;;
1390;SDS011;690;51.454;7.194;2022-10-16T04:46:30;1.90;;;1.43;;
1390;SDS011;690;51.454;7.194;2022-10-16T04:48:59;1.60;;;1.50;;
1390;SDS011;690;51.454;7.194;2022-10-16T04:51:25;2.60;;;1.10;;
1390;SDS011;690;51.454;7.194;2022-10-16T04:53:53;1.67;;;1.20;;
1390;SDS011;690;51.454;7.194;2022-10-16T04:56:20;1.50;;;1.40;;
1390;SDS011;690;51.454;7.194;2022-10-16T04:58:47;3.40;;;1.37;;
1390;SDS011;690;51.454;7.194;2022-10-16T05:01:14;2.20;;;1.60;;
1390;SDS011;690;51.454;7.194;2022-10-16T05:03:41;1.40;;;1.30;;
1390;SDS011;690;51.454;7.194;2022-10-16T05:06:09;2.80;;;1.10;;
1390;SDS011;690;51.454;7.194;2022-10-16T05:08:36;2.87;;;1.40;;
1390;SDS011;690;51.454;7.194;2022-10-16T05:11:03;2.40;;;1.23;;
1390;SDS011;690;51.454;7.194;2022-10-16T05:13:30;1.73;;;1.53;;
1390;SDS011;690;51.454;7.194;2022-10-16T05:15:57;2.60;;;1.50;;
1390;SDS011;690;51.454;7.194;2022-10-16T05:18:24;1.83;;;1.50;;
1390;SDS011;690;51.454;7.194;2022-10-16T05:20:50;2.40;;;1.27;;
1390;SDS011;690;51.454;7.194;2022-10-16T05:23:19;1.60;;;1.40;;
1390;SDS011;690;51.454;7.194;2022-10-16T05:25:51;7.37;;;1.30;;
1390;SDS011;690;51.454;7.194;2022-10-16T05:28:20;2.27;;;1.40;;
1390;SDS011;690;51.454;7.194;2022-10-16T05:30:47;2.17;;;1.30;;
1390;SDS011;690;51.454;7.194;2022-10-16T05:33:14;3.80;;;1.20;;
1390;SDS011;690;51.454;7.194;2022-10-16T05:35:41;2.73;;;1.50;;
1390;SDS011;690;51.454;7.194;2022-10-16T05:38:08;4.53;;;1.50;;
1390;SDS011;690;51.454;7.194;2022-10-16T05:40:37;3.33;;;1.30;;
1390;SDS011;690;51.454;7.194;2022-10-16T05:43:04;2.17;;;1.37;;
1390;SDS011;690;51.454;7.194;2022-10-16T05:45:31;2.23;;;1.47;;
1390;SDS011;690;51.454;7.194;2022-10-16T05:47:58;4.30;;;1.50;;
1390;SDS011;690;51.454;7.194;2022-10-16T05:50:26;2.07;;;1.33;;
1390;SDS011;690;51.454;7.194;2022-10-16T05:52:53;2.80;;;1.10;;
1390;SDS011;690;51.454;7.194;2022-10-16T05:55:20;2.80;;;1.50;;
1390;SDS011;690;51.454;7.194;2022-10-16T05:57:48;3.63;;;1.40;;
1390;SDS011;690;51.454;7.194;2022-10-16T06:00:15;1.67;;;1.10;;
1390;SDS011;690;51.454;7.194;2022-10-16T06:02:42;1.77;;;1.40;;
1390;SDS011;690;51.454;7.194;2022-10-16T06:05:09;1.90;;;1.60;;
1390;SDS011;690;51.454;7.194;2022-10-16T06:07:36;2.43;;;1.60;;
1390;SDS011;690;51.454;7.194;2022-10-16T06:10:03;1.43;;;1.33;;
1390;SDS011;690;51.454;7.194;2022-10-16T06:12:31;3.30;;;1.63;;
1390;SDS011;690;51.454;7.194;2022-10-16T06:14:59;2.17;;;1.50;;
1390;SDS011;690;51.454;7.194;2022-10-16T06:17:26;1.53;;;1.43;;
1390;SDS011;690;51.454;7.194;2022-10-16T06:19:52;2.93;;;1.90;;
1390;SDS011;690;51.454;7.194;2022-10-16T06:22:19;2.30;;;1.40;;
1390;SDS011;690;51.454;7.194;2022-10-16T06:24:46;2.80;;;1.63;;
1390;SDS011;690;51.454;7.194;2022-10-16T06:27:14;2.80;;;1.47;;
1390;SDS011;690;51.454;7.194;2022-10-16T06:29:41;4.53;;;2.17;;
1390;SDS011;690;51.454;7.194;2022-10-16T06:32:11;1.73;;;1.60;;
1390;SDS011;690;51.454;7.194;2022-10-16T06:34:38;1.77;;;1.67;;
1390;SDS011;690;51.454;7.194;2022-10-16T06:37:06;2.57;;;1.70;;
1390;SDS011;690;51.454;7.194;2022-10-16T06:39:32;3.30;;;1.70;;
1390;SDS011;690;51.454;7.194;2022-10-16T06:41:59;3.53;;;2.03;;
1390;SDS011;690;51.454;7.194;2022-10-16T06:44:26;2.13;;;1.50;;
1390;SDS011;690;51.454;7.194;2022-10-16T06:46:53;7.43;;;1.93;;
1390;SDS011;690;51.454;7.194;2022-10-16T06:49:21;2.17;;;1.70;;
1390;SDS011;690;51.454;7.194;2022-10-16T06:51:49;2.10;;;1.70;;
1390;SDS011;690;51.454;7.194;2022-10-16T06:54:15;3.63;;;1.83;;
1390;SDS011;690;51.454;7.194;2022-10-16T06:56:43;1.33;;;1.23;;
1390;SDS011;690;51.454;7.194;2022-10-16T06:59:10;1.73;;;1.63;;
1390;SDS011;690;51.454;7.194;2022-10-16T07:01:37;5.00;;;1.80;;
1390;SDS011;690;51.454;7.194;2022-10-16T07:04:04;3.70;;;2.87;;
1390;SDS011;690;51.454;7.194;2022-10-16T07:06:33;3.20;;;1.60;;
1390;SDS011;690;51.454;7.194;2022-10-16T07:09:01;3.10;;;2.00;;
1390;SDS011;690;51.454;7.194;2022-10-16T07:11:30;3.20;;;1.60;;
1390;SDS011;690;51.454;7.194;2022-10-16T07:13:57;1.60;;;1.50;;
1390;SDS011;690;51.454;7.194;2022-10-16T07:16:25;4.40;;;2.10;;
1390;SDS011;690;51.454;7.194;2022-10-16T07:18:53;1.67;;;1.37;;
1390;SDS011;690;51.454;7.194;2022-10-16T07:21:23;2.50;;;1.47;;
1390;SDS011;690;51.454;7.194;2022-10-16T07:23:53;3.47;;;1.90;;
1390;SDS011;690;51.454;7.194;2022-10-16T07:26:21;5.63;;;2.27;;
1390;SDS011;690;51.454;7.194;2022-10-16T07:28:48;2.03;;;1.67;;
1390;SDS011;690;51.454;7.194;2022-10-16T07:31:16;1.60;;;1.43;;
1390;SDS011;690;51.454;7.194;2022-10-16T07:33:45;4.20;;;1.80;;
1390;SDS011;690;51.454;7.194;2022-10-16T07:36:14;3.30;;;1.53;;
1390;SDS011;690;51.454;7.194;2022-10-16T07:38:41;2.10;;;1.80;;
1390;SDS011;690;51.454;7.194;2022-10-16T07:41:11;3.90;;;2.17;;
1390;SDS011;690;51.454;7.194;2022-10-16T07:43:39;3.50;;;2.20;;
1390;SDS011;690;51.454;7.194;2022-10-16T07:46:11;2.83;;;1.83;;
1390;SDS011;690;51.454;7.194;2022-10-16T07:48:38;3.13;;;2.30;;
1390;SDS011;690;51.454;7.194;2022-10-16T07:51:05;3.63;;;1.60;;
1390;SDS011;690;51.454;7.194;2022-10-16T07:53:33;4.97;;;1.50;;
1390;SDS011;690;51.454;7.194;2022-10-16T07:56:00;2.13;;;1.70;;
1390;SDS011;690;51.454;7.194;2022-10-16T07:58:30;5.73;;;1.50;;
1390;SDS011;690;51.454;7.194;2022-10-16T08:00:58;3.57;;;1.60;;
1390;SDS011;690;51.454;7.194;2022-10-16T08:03:28;1.53;;;1.43;;
1390;SDS011;690;51.454;7.194;2022-10-16T08:05:56;2.63;;;2.00;;
1390;SDS011;690;51.454;7.194;2022-10-16T08:08:23;2.10;;;1.70;;
1390;SDS011;690;51.454;7.194;2022-10-16T08:10:50;1.90;;;1.40;;
1390;SDS011;690;51.454;7.194;2022-10-16T08:13:17;2.47;;;1.80;;
1390;SDS011;690;51.454;7.194;2022-10-16T08:15:45;1.93;;;1.50;;
1390;SDS011;690;51.454;7.194;2022-10-16T08:18:13;6.90;;;1.60;;
1390;SDS011;690;51.454;7.194;2022-10-16T08:20:41;3.23;;;1.80;;
1390;SDS011;690;51.454;7.194;2022-10-16T08:23:09;3.07;;;1.70;;
1390;SDS011;690;51.454;7.194;2022-10-16T08:25:37;2.00;;;1.60;;
1390;SDS011;690;51.454;7.194;2022-10-16T08:28:04;4.00;;;1.43;;
1390;SDS011;690;51.454;7.194;2022-10-16T08:30:32;4.00;;;1.47;;
1390;SDS011;690;51.454;7.194;2022-10-16T08:33:00;4.23;;;1.80;;
1390;SDS011;690;51.454;7.194;2022-10-16T08:35:27;3.47;;;1.80;;
1390;SDS011;690;51.454;7.194;2022-10-16T08:37:54;2.60;;;1.33;;
1390;SDS011;690;51.454;7.194;2022-10-16T08:40:22;2.83;;;1.50;;
1390;SDS011;690;51.454;7.194;2022-10-16T08:42:54;3.93;;;1.40;;
1390;SDS011;690;51.454;7.194;2022-10-16T08:45:48;6.87;;;1.50;;
1390;SDS011;690;51.454;7.194;2022-10-16T08:48:33;3.60;;;1.20;;
1390;SDS011;690;51.454;7.194;2022-10-16T08:51:06;4.40;;;1.80;;
1390;SDS011;690;51.454;7.194;2022-10-16T08:53:37;3.47;;;1.40;;
1390;SDS011;690;51.454;7.194;2022-10-16T08:56:09;2.40;;;1.13;;
1390;SDS011;690;51.454;7.194;2022-10-16T08:58:36;2.60;;;1.10;;
1390;SDS011;690;51.454;7.194;2022-10-16T09:01:03;2.00;;;1.07;;
1390;SDS011;690;51.454;7.194;2022-10-16T09:03:42;1.60;;;1.20;;
1390;SDS011;690;51.454;7.194;2022-10-16T09:06:24;2.53;;;1.10;;
1390;SDS011;690;51.454;7.194;2022-10-16T09:09:01;2.43;;;1.40;;
1390;SDS011;690;51.454;7.194;2022-10-16T09:11:40;1.80;;;1.40;;
1390;SDS011;690;51.454;7.194;2022-10-16T09:14:17;4.30;;;1.07;;
1390;SDS011;690;51.454;7.194;2022-10-16T09:17:04;3.23;;;1.40;;
1390;SDS011;690;51.454;7.194;2022-10-16T09:19:45;1.50;;;1.00;;
1390;SDS011;690;51.454;7.194;2022-10-16T09:22:17;3.10;;;1.00;;
1390;SDS011;690;51.454;7.194;2022-10-16T09:24:48;2.53;;;1.17;;
1390;SDS011;690;51.454;7.194;2022-10-16T09:27:15;3.00;;;1.00;;
1390;SDS011;690;51.454;7.194;2022-10-16T09:30:01;2.83;;;0.97;;
1390;SDS011;690;51.454;7.194;2022-10-16T09:32:48;3.93;;;1.20;;
1390;SDS011;690;51.454;7.194;2022-10-16T09:35:39;1.20;;;1.10;;
1390;SDS011;690;51.454;7.194;2022-10-16T09:38:29;3.27;;;1.00;;
1390;SDS011;690;51.454;7.194;2022-10-16T09:41:18;2.77;;;1.10;;
1390;SDS011;690;51.454;7.194;2022-10-16T09:44:14;3.80;;;0.80;;
1390;SDS011;690;51.454;7.194;2022-10-16T09:47:03;1.60;;;0.83;;
1390;SDS011;690;51.454;7.194;2022-10-16T09:49:31;1.60;;;1.10;;
1390;SDS011;690;51.454;7.194;2022-10-16T09:52:18;4.40;;;1.10;;
1390;SDS011;690;51.454;7.194;2022-10-16T09:55:12;2.70;;;1.07;;
1390;SDS011;690;51.454;7.194;2022-10-16T09:57:48;2.97;;;1.53;;
1390;SDS011;690;51.454;7.194;2022-10-16T10:00:34;4.67;;;1.30;;
1390;SDS011;690;51.454;7.194;2022-10-16T10:03:01;4.30;;;1.50;;
1390;SDS011;690;51.454;7.194;2022-10-16T10:05:37;4.00;;;1.17;;
1390;SDS011;690;51.454;7.194;2022-10-16T10:08:12;1.00;;;0.77;;
1390;SDS011;690;51.454;7.194;2022-10-16T10:10:44;1.30;;;1.00;;
1390;SDS011;690;51.454;7.194;2022-10-16T10:13:17;1.73;;;0.83;;
1390;SDS011;690;51.454;7.194;2022-10-16T10:15:45;4.50;;;1.10;;
1390;SDS011;690;51.454;7.194;2022-10-16T10:18:16;1.93;;;1.30;;
1390;SDS011;690;51.454;7.194;2022-10-16T10:20:45;5.50;;;2.03;;
1390;SDS011;690;51.454;7.194;2022-10-16T10:23:25;3.90;;;1.60;;
1390;SDS011;690;51.454;7.194;2022-10-16T10:25:53;6.10;;;1.17;;
1390;SDS011;690;51.454;7.194;2022-10-16T10:28:32;2.07;;;1.07;;
1390;SDS011;690;51.454;7.194;2022-10-16T10:31:17;7.40;;;1.47;;
1390;SDS011;690;51.454;7.194;2022-10-16T10:33:52;3.10;;;1.10;;
1390;SDS011;690;51.454;7.194;2022-10-16T10:36:28;3.27;;;1.50;;
1390;SDS011;690;51.454;7.194;2022-10-16T10:39:00;2.70;;;1.40;;
1390;SDS011;690;51.454;7.194;2022-10-16T10:44:43;3.03;;;1.10;;
1390;SDS011;690;51.454;7.194;2022-10-16T10:47:33;4.30;;;1.30;;
1390;SDS011;690;51.454;7.194;2022-10-16T10:50:14;1.00;;;0.90;;
1390;SDS011;690;51.454;7.194;2022-10-16T10:52:52;2.20;;;1.20;;
1390;SDS011;690;51.454;7.194;2022-10-16T10:55:27;3.63;;;1.20;;
1390;SDS011;690;51.454;7.194;2022-10-16T11:00:56;2.77;;;1.10;;
1390;SDS011;690;51.454;7.194;2022-10-16T11:06:26;1.97;;;1.80;;
1390;SDS011;690;51.454;7.194;2022-10-16T11:08:57;2.70;;;1.63;;
1390;SDS011;690;51.454;7.194;2022-10-16T11:11:31;1.80;;;1.33;;
1390;SDS011;690;51.454;7.194;2022-10-16T11:14:03;4.03;;;1.40;;
1390;SDS011;690;51.454;7.194;2022-10-16T11:16:35;4.50;;;1.90;;
1390;SDS011;690;51.454;7.194;2022-10-16T11:19:10;2.97;;;1.70;;
1390;SDS011;690;51.454;7.194;2022-10-16T11:21:46;3.07;;;1.83;;
1390;SDS011;690;51.454;7.194;2022-10-16T11:24:18;4.37;;;1.57;;
1390;SDS011;690;51.454;7.194;2022-10-16T11:26:50;3.23;;;1.60;;
1390;SDS011;690;51.454;7.194;2022-10-16T11:29:22;5.03;;;1.53;;
1390;SDS011;690;51.454;7.194;2022-10-16T11:31:57;3.13;;;1.20;;
1390;SDS011;690;51.454;7.194;2022-10-16T11:34:28;1.50;;;1.10;;
1390;SDS011;690;51.454;7.194;2022-10-16T11:37:01;1.57;;;0.93;;
1390;SDS011;690;51.454;7.194;2022-10-16T11:39:33;2.10;;;1.20;;
1390;SDS011;690;51.454;7.194;2022-10-16T11:42:02;2.17;;;1.30;;
1390;SDS011;690;51.454;7.194;2022-10-16T11:44:42;1.83;;;1.33;;
1390;SDS011;690;51.454;7.194;2022-10-16T11:47:19;2.40;;;1.20;;
1390;SDS011;690;51.454;7.194;2022-10-16T11:50:01;5.23;;;1.20;;
1390;SDS011;690;51.454;7.194;2022-10-16T11:52:33;3.57;;;1.27;;
1390;SDS011;690;51.454;7.194;2022-10-16T11:55:04;2.17;;;1.10;;
1390;SDS011;690;51.454;7.194;2022-10-16T11:57:42;6.80;;;1.47;;
1390;SDS011;690;51.454;7.194;2022-10-16T12:00:18;1.77;;;1.00;;
1390;SDS011;690;51.454;7.194;2022-10-16T12:02:52;1.80;;;1.23;;
1390;SDS011;690;51.454;7.194;2022-10-16T12:05:29;2.63;;;1.03;;
1390;SDS011;690;51.454;7.194;2022-10-16T12:08:07;2.77;;;1.63;;
1390;SDS011;690;51.454;7.194;2022-10-16T12:10:37;2.27;;;0.87;;
1390;SDS011;690;51.454;7.194;2022-10-16T12:16:19;1.90;;;1.10;;
1390;SDS011;690;51.454;7.194;2022-10-16T12:18:48;1.73;;;1.00;;
1390;SDS011;690;51.454;7.194;2022-10-16T12:21:16;1.70;;;1.10;;
1390;SDS011;690;51.454;7.194;2022-10-16T12:23:47;1.33;;;0.90;;
1390;SDS011;690;51.454;7.194;2022-10-16T12:26:23;2.97;;;0.80;;
1390;SDS011;690;51.454;7.194;2022-10-16T12:28:52;2.73;;;1.13;;
1390;SDS011;690;51.454;7.194;2022-10-16T12:31:20;0.80;;;0.80;;
1390;SDS011;690;51.454;7.194;2022-10-16T12:33:54;0.80;;;0.63;;
1390;SDS011;690;51.454;7.194;2022-10-16T12:36:27;1.93;;;0.80;;
1390;SDS011;690;51.454;7.194;2022-10-16T12:38:56;3.80;;;1.00;;
1390;SDS011;690;51.454;7.194;2022-10-16T12:41:24;1.57;;;0.90;;
1390;SDS011;690;51.454;7.194;2022-10-16T12:43:54;1.07;;;0.97;;
1390;SDS011;690;51.454;7.194;2022-10-16T12:46:33;1.67;;;1.10;;
1390;SDS011;690;51.454;7.194;2022-10-16T12:49:20;0.97;;;0.60;;
1390;SDS011;690;51.454;7.194;2022-10-16T12:51:55;1.30;;;0.67;;
1390;SDS011;690;51.454;7.194;2022-10-16T12:54:23;1.60;;;0.80;;
1390;SDS011;690;51.454;7.194;2022-10-16T12:56:58;2.43;;;1.10;;
1390;SDS011;690;51.454;7.194;2022-10-16T12:59:38;3.07;;;0.97;;
1390;SDS011;690;51.454;7.194;2022-10-16T13:05:26;3.03;;;1.00;;
1390;SDS011;690;51.454;7.194;2022-10-16T13:08:05;2.87;;;0.90;;
1390;SDS011;690;51.454;7.194;2022-10-16T13:10:46;3.57;;;1.23;;
1390;SDS011;690;51.454;7.194;2022-10-16T13:13:22;1.50;;;0.80;;
1390;SDS011;690;51.454;7.194;2022-10-16T13:16:07;1.53;;;0.80;;
1390;SDS011;690;51.454;7.194;2022-10-16T13:18:43;1.80;;;1.17;;
1390;SDS011;690;51.454;7.194;2022-10-16T13:21:25;2.10;;;0.90;;
1390;SDS011;690;51.454;7.194;2022-10-16T13:24:02;4.53;;;1.60;;
1390;SDS011;690;51.454;7.194;2022-10-16T13:26:41;3.20;;;1.00;;
1390;SDS011;690;51.454;7.194;2022-10-16T13:29:14;2.57;;;0.80;;
1390;SDS011;690;51.454;7.194;2022-10-16T13:31:43;2.10;;;0.83;;
1390;SDS011;690;51.454;7.194;2022-10-16T13:34:12;2.40;;;1.03;;
1390;SDS011;690;51.454;7.194;2022-10-16T13:36:43;2.57;;;1.17;;
1390;SDS011;690;51.454;7.194;2022-10-16T13:39:13;2.50;;;0.80;;
1390;SDS011;690;51.454;7.194;2022-10-16T13:41:42;1.60;;;1.10;;
1390;SDS011;690;51.454;7.194;2022-10-16T13:44:13;5.27;;;1.20;;
1390;SDS011;690;51.454;7.194;2022-10-16T13:46:46;2.47;;;1.30;;
1390;SDS011;690;51.454;7.194;2022-10-16T13:49:13;5.37;;;1.40;;
1390;SDS011;690;51.454;7.194;2022-10-16T13:51:47;6.23;;;1.37;;
1390;SDS011;690;51.454;7.194;2022-10-16T13:54:20;1.20;;;1.10;;
1390;SDS011;690;51.454;7.194;2022-10-16T13:56:47;2.43;;;0.73;;
1390;SDS011;690;51.454;7.194;2022-10-16T13:59:24;3.23;;;0.83;;
1390;SDS011;690;51.454;7.194;2022-10-16T14:01:55;3.00;;;1.30;;
1390;SDS011;690;51.454;7.194;2022-10-16T14:04:31;3.73;;;0.90;;
1390;SDS011;690;51.454;7.194;2022-10-16T14:06:59;2.63;;;0.80;;
1390;SDS011;690;51.454;7.194;2022-10-16T14:09:26;2.50;;;0.80;;
1390;SDS011;690;51.454;7.194;2022-10-16T14:11:55;1.87;;;0.90;;
1390;SDS011;690;51.454;7.194;2022-10-16T14:14:25;3.47;;;1.20;;
1390;SDS011;690;51.454;7.194;2022-10-16T14:17:03;2.03;;;0.93;;
1390;SDS011;690;51.454;7.194;2022-10-16T14:19:30;4.17;;;1.20;;
1390;SDS011;690;51.454;7.194;2022-10-16T14:21:57;4.90;;;1.30;;
1390;SDS011;690;51.454;7.194;2022-10-16T14:24:27;5.27;;;1.00;;
1390;SDS011;690;51.454;7.194;2022-10-16T14:26:59;1.20;;;0.70;;
1390;SDS011;690;51.454;7.194;2022-10-16T14:29:27;3.23;;;0.90;;
1390;SDS011;690;51.454;7.194;2022-10-16T14:31:57;3.20;;;1.27;;
1390;SDS011;690;51.454;7.194;2022-10-16T14:34:27;3.30;;;1.10;;
1390;SDS011;690;51.454;7.194;2022-10-16T14:36:58;2.90;;;0.70;;
1390;SDS011;690;51.454;7.194;2022-10-16T14:39:32;4.00;;;1.13;;
1390;SDS011;690;51.454;7.194;2022-10-16T14:41:59;3.33;;;0.90;;
1390;SDS011;690;51.454;7.194;2022-10-16T14:44:27;3.93;;;1.40;;
1390;SDS011;690;51.454;7.194;2022-10-16T14:46:56;2.33;;;0.90;;
1390;SDS011;690;51.454;7.194;2022-10-16T14:49:24;3.00;;;1.17;;
1390;SDS011;690;51.454;7.194;2022-10-16T14:51:53;1.50;;;0.80;;
1390;SDS011;690;51.454;7.194;2022-10-16T14:54:20;5.80;;;1.20;;
1390;SDS011;690;51.454;7.194;2022-10-16T14:56:48;1.73;;;0.90;;
1390;SDS011;690;51.454;7.194;2022-10-16T14:59:18;1.33;;;1.00;;
1390;SDS011;690;51.454;7.194;2022-10-16T15:01:50;2.03;;;0.80;;
1390;SDS011;690;51.454;7.194;2022-10-16T15:04:17;2.23;;;1.00;;
1390;SDS011;690;51.454;7.194;2022-10-16T15:06:45;1.63;;;0.93;;
1390;SDS011;690;51.454;7.194;2022-10-16T15:09:12;4.60;;;1.70;;
1390;SDS011;690;51.454;7.194;2022-10-16T15:11:39;1.53;;;0.93;;
1390;SDS011;690;51.454;7.194;2022-10-16T15:14:08;1.47;;;1.03;;
1390;SDS011;690;51.454;7.194;2022-10-16T15:16:37;2.00;;;1.70;;
1390;SDS011;690;51.454;7.194;2022-10-16T15:19:04;6.93;;;1.40;;
1390;SDS011;690;51.454;7.194;2022-10-16T15:21:31;2.53;;;1.27;;
1390;SDS011;690;51.454;7.194;2022-10-16T15:24:00;4.40;;;1.77;;
1390;SDS011;690;51.454;7.194;2022-10-16T15:26:28;5.37;;;1.07;;
1390;SDS011;690;51.454;7.194;2022-10-16T15:28:56;1.93;;;1.40;;
1390;SDS011;690;51.454;7.194;2022-10-16T15:31:23;6.20;;;1.70;;
1390;SDS011;690;51.454;7.194;2022-10-16T15:33:50;3.73;;;1.50;;
1390;SDS011;690;51.454;7.194;2022-10-16T15:36:24;4.90;;;1.90;;
1390;SDS011;690;51.454;7.194;2022-10-16T15:38:52;2.50;;;1.70;;
1390;SDS011;690;51.454;7.194;2022-10-16T15:41:21;6.73;;;1.93;;
1390;SDS011;690;51.454;7.194;2022-10-16T15:43:48;8.70;;;2.37;;
1390;SDS011;690;51.454;7.194;2022-10-16T15:46:17;7.67;;;3.50;;
1390;SDS011;690;51.454;7.194;2022-10-16T15:48:45;4.60;;;2.80;;
1390;SDS011;690;51.454;7.194;2022-10-16T15:51:12;9.13;;;3.40;;
1390;SDS011;690;51.454;7.194;2022-10-16T15:53:39;7.17;;;3.10;;
1390;SDS011;690;51.454;7.194;2022-10-16T15:56:07;4.20;;;1.73;;
1390;SDS011;690;51.454;7.194;2022-10-16T15:58:37;4.03;;;2.10;;
1390;SDS011;690;51.454;7.194;2022-10-16T16:01:04;2.80;;;1.90;;
1390;SDS011;690;51.454;7.194;2022-10-16T16:03:33;15.23;;;2.20;;
1390;SDS011;690;51.454;7.194;2022-10-16T16:06:03;4.80;;;1.60;;